Time;durP1;ratioP1;P1;durP2;ratioP2;P2;SDS_P1;SDS_P2;PMS_P1;PMS_P2;Temp;Humidity;BMP_temperature;BMP_pressure;BME280_temperature;BME280_humidity;BME280_pressure;Samples;Min_cycle;Max_cycle;Signal;HPM_P1;HPM_P2
2023/08/23 00:00:50;;;;;;;6.25;3.53;;;;;;;;;;5046936;28;20024;-67
2023/08/23 00:03:36;;;;;;;8.38;3.60;;;;;;;;;;5049624;28;20334;-78
2023/08/23 00:06:21;;;;;;;7.10;3.30;;;;;;;;;;5050643;28;20079;-77
2023/08/23 00:09:06;;;;;;;7.80;3.60;;;;;;;;;;5034900;28;21272;-76
2023/08/23 00:11:52;;;;;;;8.00;3.67;;;;;;;;;;5049759;28;20044;-78
2023/08/23 00:14:37;;;;;;;6.85;3.95;;;;;;;;;;5049130;28;20125;-77
2023/08/23 00:17:22;;;;;;;6.53;3.33;;;;;;;;;;5049218;28;20048;-68
2023/08/23 00:20:08;;;;;;;4.40;2.95;;;;;;;;;;5031348;28;20538;-71
2023/08/23 00:22:53;;;;;;;6.20;3.72;;;;;;;;;;5048365;28;20040;-71
2023/08/23 00:25:38;;;;;;;5.07;3.20;;;;;;;;;;5047129;28;20426;-71
2023/08/23 00:28:23;;;;;;;6.25;3.72;;;;;;;;;;5048913;28;20031;-71
2023/08/23 00:31:08;;;;;;;6.82;3.58;;;;;;;;;;5048297;28;20032;-72
2023/08/23 00:33:54;;;;;;;6.05;3.63;;;;;;;;;;5035545;28;20219;-71
2023/08/23 00:36:39;;;;;;;8.75;4.30;;;;;;;;;;5048275;28;20299;-76
2023/08/23 00:39:24;;;;;;;6.18;4.13;;;;;;;;;;5047889;28;20029;-65
2023/08/23 00:42:10;;;;;;;6.13;3.65;;;;;;;;;;5040325;28;20554;-66
2023/08/23 00:44:55;;;;;;;6.72;3.35;;;;;;;;;;5025182;28;20076;-66
2023/08/23 00:47:40;;;;;;;7.28;4.22;;;;;;;;;;5017830;28;20033;-67
2023/08/23 00:50:25;;;;;;;8.07;3.55;;;;;;;;;;5061474;28;20040;-66
2023/08/23 00:53:12;;;;;;;8.55;3.95;;;;;;;;;;5048558;28;20055;-66
2023/08/23 00:55:59;;;;;;;6.65;3.85;;;;;;;;;;5012272;28;20432;-69
2023/08/23 00:58:44;;;;;;;7.65;4.03;;;;;;;;;;5025842;28;20076;-78
2023/08/23 01:01:30;;;;;;;5.30;3.72;;;;;;;;;;5042757;28;20040;-78
2023/08/23 01:04:15;;;;;;;5.05;3.65;;;;;;;;;;5038899;28;20037;-78
2023/08/23 01:07:12;;;;;;;4.00;3.30;;;;;;;;;;5048754;28;20067;-78
2023/08/23 01:10:04;;;;;;;8.23;4.20;;;;;;;;;;5040021;28;20356;-77
2023/08/23 01:13:05;;;;;;;6.30;4.40;;;;;;;;;;5038486;28;20438;-75
2023/08/23 01:15:53;;;;;;;7.25;3.80;;;;;;;;;;5032644;28;20033;-75
2023/08/23 01:18:39;;;;;;;6.00;3.95;;;;;;;;;;5028720;28;20037;-76
2023/08/23 01:21:32;;;;;;;5.72;3.95;;;;;;;;;;5037082;28;20115;-75
2023/08/23 01:24:17;;;;;;;8.30;4.38;;;;;;;;;;5051509;28;20033;-77
2023/08/23 01:27:03;;;;;;;7.32;3.63;;;;;;;;;;5023022;28;20561;-76
2023/08/23 01:29:48;;;;;;;5.60;3.95;;;;;;;;;;5037680;28;20468;-75
2023/08/23 01:32:40;;;;;;;11.18;4.55;;;;;;;;;;5023353;28;20086;-69
2023/08/23 01:35:36;;;;;;;7.28;3.88;;;;;;;;;;5030067;28;20545;-77
2023/08/23 01:38:22;;;;;;;8.23;3.95;;;;;;;;;;5045773;28;20403;-77
2023/08/23 01:41:07;;;;;;;7.90;4.18;;;;;;;;;;5038196;28;20040;-75
2023/08/23 01:43:52;;;;;;;6.53;4.63;;;;;;;;;;5038949;28;20039;-77
2023/08/23 01:46:37;;;;;;;8.85;3.72;;;;;;;;;;5044344;28;20060;-75
2023/08/23 01:49:23;;;;;;;7.80;4.32;;;;;;;;;;5035023;28;20107;-69
2023/08/23 01:52:08;;;;;;;7.05;3.72;;;;;;;;;;5025797;28;20029;-75
2023/08/23 01:54:53;;;;;;;8.48;3.70;;;;;;;;;;5040935;28;20476;-76
2023/08/23 01:57:40;;;;;;;6.63;3.97;;;;;;;;;;5036548;28;20077;-75
2023/08/23 02:00:25;;;;;;;9.00;4.63;;;;;;;;;;5024140;28;20572;-77
2023/08/23 02:03:10;;;;;;;9.32;4.50;;;;;;;;;;5039599;28;20032;-77
2023/08/23 02:05:55;;;;;;;7.30;4.20;;;;;;;;;;5037005;28;20039;-76
2023/08/23 02:08:41;;;;;;;8.35;4.07;;;;;;;;;;5034741;28;20041;-76
2023/08/23 02:11:26;;;;;;;6.63;4.47;;;;;;;;;;5030185;28;20464;-75
2023/08/23 02:14:11;;;;;;;8.10;4.18;;;;;;;;;;5048544;28;20029;-75
2023/08/23 02:16:57;;;;;;;7.18;4.30;;;;;;;;;;5031153;28;20078;-75
2023/08/23 02:19:42;;;;;;;7.80;3.92;;;;;;;;;;5038528;28;20031;-78
2023/08/23 02:22:27;;;;;;;7.95;4.05;;;;;;;;;;5017726;28;20041;-77
2023/08/23 02:25:12;;;;;;;10.43;4.18;;;;;;;;;;5030584;28;20036;-77
2023/08/23 02:27:57;;;;;;;6.30;4.13;;;;;;;;;;5046909;28;20371;-65
2023/08/23 02:30:43;;;;;;;9.00;4.50;;;;;;;;;;5040953;28;20039;-69
2023/08/23 02:33:28;;;;;;;6.32;3.97;;;;;;;;;;5039113;28;20033;-68
2023/08/23 02:36:13;;;;;;;5.90;4.05;;;;;;;;;;5023472;28;20025;-68
2023/08/23 02:38:58;;;;;;;12.45;4.20;;;;;;;;;;5028989;28;20055;-67
2023/08/23 02:41:44;;;;;;;8.30;4.93;;;;;;;;;;5041167;28;20037;-69
2023/08/23 02:44:29;;;;;;;9.07;4.45;;;;;;;;;;5026482;28;20099;-66
2023/08/23 02:47:14;;;;;;;7.18;4.13;;;;;;;;;;5032549;28;20511;-65
2023/08/23 02:49:59;;;;;;;6.45;4.03;;;;;;;;;;5029432;28;20126;-76
2023/08/23 02:52:44;;;;;;;4.75;3.80;;;;;;;;;;5032466;28;20043;-75
2023/08/23 02:55:30;;;;;;;6.70;3.75;;;;;;;;;;5032969;28;20039;-75
2023/08/23 02:58:15;;;;;;;6.57;4.18;;;;;;;;;;5037894;28;20156;-76
2023/08/23 03:01:00;;;;;;;7.85;4.60;;;;;;;;;;5039770;28;20040;-74
2023/08/23 03:03:46;;;;;;;8.23;4.93;;;;;;;;;;5042125;28;20043;-67
2023/08/23 03:06:31;;;;;;;5.93;4.45;;;;;;;;;;5010398;28;20033;-66
2023/08/23 03:09:16;;;;;;;5.97;4.68;;;;;;;;;;5034560;28;20064;-66
2023/08/23 03:12:01;;;;;;;6.22;4.22;;;;;;;;;;4997997;28;20029;-67
2023/08/23 03:14:47;;;;;;;7.28;4.13;;;;;;;;;;5024230;28;20040;-64
2023/08/23 03:17:32;;;;;;;7.13;4.85;;;;;;;;;;5043508;28;20573;-68
2023/08/23 03:20:17;;;;;;;7.05;4.82;;;;;;;;;;5037228;28;20167;-66
2023/08/23 03:23:02;;;;;;;6.88;4.13;;;;;;;;;;5037624;28;20119;-70
2023/08/23 03:25:48;;;;;;;6.57;4.55;;;;;;;;;;5036496;28;20028;-68
2023/08/23 03:28:33;;;;;;;8.30;4.82;;;;;;;;;;5035233;28;20455;-69
2023/08/23 03:31:18;;;;;;;6.93;4.13;;;;;;;;;;5038929;28;20033;-69
2023/08/23 03:34:05;;;;;;;8.98;4.85;;;;;;;;;;5036115;28;20666;-68
2023/08/23 03:36:50;;;;;;;7.50;4.32;;;;;;;;;;5023564;28;20029;-68
2023/08/23 03:39:37;;;;;;;6.53;4.50;;;;;;;;;;4995226;28;20092;-76
2023/08/23 03:42:22;;;;;;;7.85;5.07;;;;;;;;;;5027351;28;20376;-69
2023/08/23 03:45:07;;;;;;;10.05;4.45;;;;;;;;;;5037505;28;20060;-68
2023/08/23 03:47:52;;;;;;;10.52;5.10;;;;;;;;;;5048159;28;20143;-69
2023/08/23 03:50:38;;;;;;;7.50;4.75;;;;;;;;;;5049331;28;20127;-68
2023/08/23 03:53:23;;;;;;;5.53;4.03;;;;;;;;;;5022785;28;20100;-70
2023/08/23 03:56:08;;;;;;;12.13;5.10;;;;;;;;;;5050170;28;20415;-69
2023/08/23 03:58:54;;;;;;;6.07;4.47;;;;;;;;;;5019473;28;20095;-65
2023/08/23 04:01:39;;;;;;;6.25;4.53;;;;;;;;;;5015982;28;20041;-67
2023/08/23 04:04:24;;;;;;;8.88;4.00;;;;;;;;;;5015128;28;20033;-65
2023/08/23 04:07:11;;;;;;;7.47;4.53;;;;;;;;;;5031011;28;20059;-65
2023/08/23 04:09:57;;;;;;;6.78;4.25;;;;;;;;;;5036685;28;20049;-65
2023/08/23 04:12:42;;;;;;;6.90;4.85;;;;;;;;;;5008143;28;20120;-65
2023/08/23 04:15:27;;;;;;;6.50;4.13;;;;;;;;;;5008977;28;20538;-64
2023/08/23 04:18:12;;;;;;;7.65;5.03;;;;;;;;;;5051914;28;20028;-71
2023/08/23 04:20:59;;;;;;;9.70;5.00;;;;;;;;;;5045714;28;20110;-70
2023/08/23 04:23:44;;;;;;;8.50;5.38;;;;;;;;;;5051908;28;20089;-72
2023/08/23 04:26:29;;;;;;;9.27;4.63;;;;;;;;;;5030964;28;20157;-72
2023/08/23 04:29:15;;;;;;;7.55;4.90;;;;;;;;;;5038778;28;20033;-71
2023/08/23 04:32:00;;;;;;;9.02;4.82;;;;;;;;;;5040007;28;20033;-71
2023/08/23 04:34:45;;;;;;;7.72;5.18;;;;;;;;;;5056672;28;20029;-74
2023/08/23 04:37:31;;;;;;;7.57;5.20;;;;;;;;;;5039783;28;20484;-67
2023/08/23 04:40:16;;;;;;;9.45;5.18;;;;;;;;;;5033193;28;20443;-76
2023/08/23 04:43:01;;;;;;;10.13;4.25;;;;;;;;;;5045978;28;20051;-77
2023/08/23 04:45:46;;;;;;;9.00;4.95;;;;;;;;;;5030292;28;20047;-76
2023/08/23 04:48:32;;;;;;;6.85;4.28;;;;;;;;;;5037496;28;20040;-78
2023/08/23 04:51:17;;;;;;;7.97;5.00;;;;;;;;;;5041495;28;20399;-76
2023/08/23 04:54:02;;;;;;;8.00;4.60;;;;;;;;;;5050582;28;20063;-72
2023/08/23 04:56:48;;;;;;;8.27;4.82;;;;;;;;;;5065622;28;20031;-77
2023/08/23 04:59:33;;;;;;;8.25;5.28;;;;;;;;;;5030017;28;20036;-78
2023/08/23 05:02:18;;;;;;;9.25;5.80;;;;;;;;;;5045780;28;20040;-78
2023/08/23 05:05:03;;;;;;;8.38;4.43;;;;;;;;;;5035010;28;20070;-76
2023/08/23 05:07:49;;;;;;;9.93;5.07;;;;;;;;;;5038176;28;20411;-77
2023/08/23 05:10:35;;;;;;;8.45;5.10;;;;;;;;;;5055675;28;20051;-77
2023/08/23 05:13:20;;;;;;;7.90;4.63;;;;;;;;;;5029257;28;20444;-75
2023/08/23 05:16:05;;;;;;;5.78;4.55;;;;;;;;;;5048658;28;20361;-72
2023/08/23 05:18:50;;;;;;;7.28;4.40;;;;;;;;;;5034033;28;20438;-71
2023/08/23 05:21:36;;;;;;;8.50;6.07;;;;;;;;;;5021691;28;20052;-71
2023/08/23 05:24:21;;;;;;;9.38;6.10;;;;;;;;;;5010395;28;20040;-71
2023/08/23 05:27:06;;;;;;;9.38;5.40;;;;;;;;;;5037068;28;20388;-71
2023/08/23 05:29:51;;;;;;;9.82;5.00;;;;;;;;;;5024085;28;20082;-73
2023/08/23 05:32:37;;;;;;;5.72;4.25;;;;;;;;;;5029566;28;20036;-66
2023/08/23 05:35:22;;;;;;;9.05;5.53;;;;;;;;;;5034178;28;20049;-75
2023/08/23 05:38:09;;;;;;;8.00;5.53;;;;;;;;;;5019453;28;20041;-73
2023/08/23 05:40:54;;;;;;;7.82;4.80;;;;;;;;;;5013825;28;20103;-72
2023/08/23 05:43:39;;;;;;;11.73;5.68;;;;;;;;;;5007316;28;20439;-75
2023/08/23 05:46:24;;;;;;;7.32;3.95;;;;;;;;;;5017179;28;20194;-73
2023/08/23 05:49:10;;;;;;;10.13;4.75;;;;;;;;;;5022282;28;20140;-66
2023/08/23 05:51:55;;;;;;;10.00;4.95;;;;;;;;;;5021519;28;20038;-69
2023/08/23 05:54:41;;;;;;;9.10;4.85;;;;;;;;;;5021185;28;20037;-71
2023/08/23 05:57:26;;;;;;;6.47;4.25;;;;;;;;;;5017065;28;20064;-74
2023/08/23 06:00:12;;;;;;;7.10;4.57;;;;;;;;;;4993803;28;20038;-68
2023/08/23 06:02:57;;;;;;;7.35;4.63;;;;;;;;;;5045865;28;20514;-70
2023/08/23 06:05:43;;;;;;;6.05;4.00;;;;;;;;;;5053900;28;20538;-70
2023/08/23 06:08:28;;;;;;;9.00;5.43;;;;;;;;;;5037036;28;20075;-70
2023/08/23 06:11:13;;;;;;;8.02;4.40;;;;;;;;;;5019743;28;20507;-69
2023/08/23 06:13:59;;;;;;;10.00;4.50;;;;;;;;;;5019701;28;20040;-72
2023/08/23 06:16:44;;;;;;;9.15;4.65;;;;;;;;;;5022698;28;20036;-69
2023/08/23 06:19:29;;;;;;;11.48;5.50;;;;;;;;;;5011885;28;20037;-70
2023/08/23 06:22:15;;;;;;;10.10;5.03;;;;;;;;;;5008234;28;20209;-71
2023/08/23 06:25:00;;;;;;;14.50;5.10;;;;;;;;;;5043442;28;20033;-72
2023/08/23 06:27:45;;;;;;;6.05;4.30;;;;;;;;;;4991331;28;20057;-73
2023/08/23 06:30:30;;;;;;;8.63;4.50;;;;;;;;;;4996431;28;20033;-71
2023/08/23 06:33:16;;;;;;;7.95;4.70;;;;;;;;;;5011553;28;20032;-78
2023/08/23 06:36:05;;;;;;;9.20;4.20;;;;;;;;;;5032941;28;20095;-74
2023/08/23 06:38:50;;;;;;;10.20;5.97;;;;;;;;;;5033582;28;20072;-74
2023/08/23 06:41:35;;;;;;;6.88;4.00;;;;;;;;;;5044587;28;20032;-74
2023/08/23 06:44:20;;;;;;;6.50;4.22;;;;;;;;;;5011674;28;20036;-77
2023/08/23 06:47:05;;;;;;;8.00;4.93;;;;;;;;;;5005705;28;20049;-69
2023/08/23 06:49:51;;;;;;;11.13;5.80;;;;;;;;;;5003525;28;20396;-67
2023/08/23 06:52:36;;;;;;;7.05;4.53;;;;;;;;;;5034144;28;20453;-67
2023/08/23 06:55:21;;;;;;;9.30;5.07;;;;;;;;;;5032564;28;20068;-66
2023/08/23 06:58:07;;;;;;;8.95;4.65;;;;;;;;;;4997303;28;20076;-67
2023/08/23 07:00:54;;;;;;;10.80;4.53;;;;;;;;;;5013149;28;20036;-69
2023/08/23 07:03:41;;;;;;;13.20;4.93;;;;;;;;;;5024604;28;20293;-73
2023/08/23 07:06:26;;;;;;;8.70;5.20;;;;;;;;;;5029814;28;20403;-70
2023/08/23 07:09:11;;;;;;;8.88;4.85;;;;;;;;;;5022752;28;20038;-70
2023/08/23 07:11:56;;;;;;;16.60;4.82;;;;;;;;;;5020368;28;20048;-70
2023/08/23 07:14:41;;;;;;;10.93;5.50;;;;;;;;;;5044294;28;20040;-69
2023/08/23 07:17:27;;;;;;;8.45;4.95;;;;;;;;;;5042122;28;20037;-68
2023/08/23 07:20:13;;;;;;;6.03;4.35;;;;;;;;;;5044013;28;20040;-69
2023/08/23 07:22:58;;;;;;;9.00;4.75;;;;;;;;;;5042955;28;20033;-72
2023/08/23 07:25:44;;;;;;;8.90;5.05;;;;;;;;;;5044226;28;20215;-72
2023/08/23 07:28:30;;;;;;;8.73;4.20;;;;;;;;;;5041738;28;20032;-71
2023/08/23 07:31:15;;;;;;;6.75;4.45;;;;;;;;;;5042277;28;20076;-72
2023/08/23 07:34:00;;;;;;;8.35;4.53;;;;;;;;;;5043686;28;20033;-72
2023/08/23 07:36:45;;;;;;;8.65;4.07;;;;;;;;;;5044028;28;20029;-72
2023/08/23 07:39:31;;;;;;;11.57;4.38;;;;;;;;;;5045000;28;20624;-71
2023/08/23 07:42:16;;;;;;;7.53;4.70;;;;;;;;;;5043651;28;20818;-74
2023/08/23 07:45:01;;;;;;;7.13;4.20;;;;;;;;;;5043106;28;20060;-74
2023/08/23 07:47:46;;;;;;;11.05;4.57;;;;;;;;;;5041064;28;20068;-74
2023/08/23 07:50:32;;;;;;;9.48;4.43;;;;;;;;;;5060227;28;20128;-71
2023/08/23 07:53:17;;;;;;;7.63;4.35;;;;;;;;;;5041545;28;20635;-68
2023/08/23 07:56:02;;;;;;;10.27;4.60;;;;;;;;;;5054779;28;20479;-69
2023/08/23 07:58:48;;;;;;;10.10;4.50;;;;;;;;;;5046121;28;20029;-70
2023/08/23 08:01:33;;;;;;;9.65;4.60;;;;;;;;;;5046807;28;20565;-73
2023/08/23 08:04:19;;;;;;;8.93;4.20;;;;;;;;;;5045862;28;20029;-70
2023/08/23 08:07:04;;;;;;;15.98;5.45;;;;;;;;;;5029167;28;20092;-73
2023/08/23 08:09:49;;;;;;;9.77;4.85;;;;;;;;;;5032338;28;20040;-73
2023/08/23 08:12:34;;;;;;;8.13;3.92;;;;;;;;;;5043493;28;20487;-71
2023/08/23 08:15:19;;;;;;;5.45;3.92;;;;;;;;;;5014892;28;20037;-71
2023/08/23 08:18:05;;;;;;;11.55;4.55;;;;;;;;;;5020424;28;20029;-69
2023/08/23 08:20:50;;;;;;;10.93;5.03;;;;;;;;;;5026378;28;20029;-69
2023/08/23 08:23:35;;;;;;;7.85;4.60;;;;;;;;;;5033939;28;20037;-68
2023/08/23 08:26:20;;;;;;;10.07;4.85;;;;;;;;;;5046673;28;20033;-71
2023/08/23 08:29:06;;;;;;;9.02;3.88;;;;;;;;;;5049773;28;20064;-72
2023/08/23 08:31:51;;;;;;;6.82;4.15;;;;;;;;;;5048669;28;20076;-72
2023/08/23 08:34:36;;;;;;;7.30;4.38;;;;;;;;;;5032311;28;20029;-73
2023/08/23 08:37:22;;;;;;;12.40;5.03;;;;;;;;;;5045731;28;20040;-78
2023/08/23 08:40:08;;;;;;;9.07;4.88;;;;;;;;;;5049431;28;20040;-75
2023/08/23 08:42:54;;;;;;;7.32;4.90;;;;;;;;;;5046830;28;20048;-77
2023/08/23 08:45:40;;;;;;;9.88;4.57;;;;;;;;;;5061335;28;20041;-79
2023/08/23 08:48:25;;;;;;;9.10;5.20;;;;;;;;;;5048647;28;20068;-76
2023/08/23 08:51:18;;;;;;;7.03;4.88;;;;;;;;;;5035030;28;20057;-75
2023/08/23 08:54:05;;;;;;;9.50;4.65;;;;;;;;;;5030105;28;20395;-74
2023/08/23 08:56:51;;;;;;;10.10;4.82;;;;;;;;;;5032492;28;20029;-72
2023/08/23 08:59:37;;;;;;;7.60;4.28;;;;;;;;;;5043985;28;20025;-71
2023/08/23 09:02:23;;;;;;;12.93;5.15;;;;;;;;;;5031010;28;20119;-72
2023/08/23 09:05:09;;;;;;;11.70;4.18;;;;;;;;;;5034166;28;20025;-72
2023/08/23 09:07:55;;;;;;;6.78;4.20;;;;;;;;;;5029271;28;20037;-71
2023/08/23 09:10:40;;;;;;;10.07;4.97;;;;;;;;;;5027400;28;20084;-74
2023/08/23 09:13:25;;;;;;;6.75;4.18;;;;;;;;;;5046515;28;20045;-68
2023/08/23 09:16:12;;;;;;;7.60;4.65;;;;;;;;;;5032532;28;20083;-70
2023/08/23 09:18:57;;;;;;;7.18;5.00;;;;;;;;;;5028842;28;20040;-68
2023/08/23 09:21:48;;;;;;;12.52;4.65;;;;;;;;;;5029050;28;20099;-68
2023/08/23 09:24:34;;;;;;;8.20;4.43;;;;;;;;;;5032656;28;20487;-71
2023/08/23 09:27:20;;;;;;;11.55;4.38;;;;;;;;;;5033068;28;20017;-69
2023/08/23 09:30:06;;;;;;;9.60;4.57;;;;;;;;;;5039680;28;20033;-72
2023/08/23 09:32:51;;;;;;;7.60;4.78;;;;;;;;;;5028227;28;20031;-70
2023/08/23 09:35:46;;;;;;;11.60;4.38;;;;;;;;;;5012733;28;20024;-71
2023/08/23 09:38:31;;;;;;;7.53;3.75;;;;;;;;;;5018627;28;20223;-68
2023/08/23 09:41:17;;;;;;;7.85;4.18;;;;;;;;;;5021448;28;20041;-69
2023/08/23 09:44:03;;;;;;;10.15;5.10;;;;;;;;;;5027936;28;20029;-67
2023/08/23 09:46:49;;;;;;;10.40;4.47;;;;;;;;;;5014666;28;20030;-70
2023/08/23 09:49:34;;;;;;;6.07;4.05;;;;;;;;;;4988484;28;20431;-73
2023/08/23 09:52:21;;;;;;;8.38;3.92;;;;;;;;;;5003922;28;20025;-66
2023/08/23 09:55:09;;;;;;;6.60;3.97;;;;;;;;;;5009866;28;20048;-65
2023/08/23 09:57:54;;;;;;;7.22;4.22;;;;;;;;;;4996868;28;20029;-66
2023/08/23 10:00:39;;;;;;;8.90;4.68;;;;;;;;;;5015327;28;20376;-69
2023/08/23 10:03:25;;;;;;;8.85;4.43;;;;;;;;;;5029837;28;20211;-67
2023/08/23 10:06:10;;;;;;;13.25;4.65;;;;;;;;;;5032624;28;20119;-71
2023/08/23 10:08:57;;;;;;;8.63;4.32;;;;;;;;;;5005800;28;20076;-70
2023/08/23 10:11:43;;;;;;;7.82;4.03;;;;;;;;;;4980103;28;20443;-74
2023/08/23 10:14:28;;;;;;;9.52;4.95;;;;;;;;;;5002229;28;20031;-74
2023/08/23 10:17:16;;;;;;;5.47;3.58;;;;;;;;;;5022420;28;20311;-70
2023/08/23 10:20:07;;;;;;;6.57;4.53;;;;;;;;;;5029979;28;20035;-69
2023/08/23 10:22:54;;;;;;;8.55;4.68;;;;;;;;;;5028239;28;20566;-71
2023/08/23 10:25:40;;;;;;;14.25;3.83;;;;;;;;;;5045695;28;20499;-65
2023/08/23 10:28:25;;;;;;;9.05;4.32;;;;;;;;;;5042440;28;20068;-70
2023/08/23 10:31:11;;;;;;;5.35;3.45;;;;;;;;;;5043956;28;20051;-69
2023/08/23 10:33:56;;;;;;;5.60;3.30;;;;;;;;;;5016871;28;20044;-69
2023/08/23 10:36:42;;;;;;;8.88;3.80;;;;;;;;;;5013536;28;20155;-70
2023/08/23 10:39:27;;;;;;;13.70;3.70;;;;;;;;;;5014641;28;20049;-70
2023/08/23 10:42:12;;;;;;;26.98;8.43;;;;;;;;;;5012963;28;20360;-72
2023/08/23 10:44:59;;;;;;;17.27;6.97;;;;;;;;;;5014301;28;20029;-72
2023/08/23 10:47:48;;;;;;;18.92;7.07;;;;;;;;;;5006388;28;20128;-72
2023/08/23 10:50:33;;;;;;;43.85;15.48;;;;;;;;;;5013597;28;20045;-70
2023/08/23 10:53:18;;;;;;;77.30;22.25;;;;;;;;;;5012050;28;20151;-73
2023/08/23 10:56:04;;;;;;;59.25;20.80;;;;;;;;;;5012442;28;20033;-72
2023/08/23 10:58:49;;;;;;;58.55;18.70;;;;;;;;;;5016015;28;20044;-71
2023/08/23 11:01:34;;;;;;;44.22;14.82;;;;;;;;;;5010823;28;20044;-66
2023/08/23 11:04:20;;;;;;;40.42;12.95;;;;;;;;;;5042996;28;20063;-67
2023/08/23 11:07:05;;;;;;;29.80;11.07;;;;;;;;;;5053206;28;20036;-67
2023/08/23 11:09:51;;;;;;;14.02;6.22;;;;;;;;;;5038713;28;20037;-69
2023/08/23 11:12:37;;;;;;;23.55;8.23;;;;;;;;;;5041874;28;20040;-65
2023/08/23 11:15:24;;;;;;;30.38;8.38;;;;;;;;;;5027616;28;20514;-64
2023/08/23 11:18:11;;;;;;;17.50;6.35;;;;;;;;;;5029193;28;20025;-64
2023/08/23 11:20:57;;;;;;;13.80;6.18;;;;;;;;;;5042807;28;20037;-68
2023/08/23 11:23:42;;;;;;;10.38;5.30;;;;;;;;;;5029543;28;20040;-73
2023/08/23 11:26:27;;;;;;;12.60;6.07;;;;;;;;;;5026054;28;20553;-73
2023/08/23 11:29:12;;;;;;;9.88;4.72;;;;;;;;;;5028391;28;20036;-72
2023/08/23 11:31:58;;;;;;;9.13;4.93;;;;;;;;;;5037671;28;20044;-75
2023/08/23 11:34:43;;;;;;;9.07;4.75;;;;;;;;;;5036991;28;20041;-74
2023/08/23 11:37:28;;;;;;;9.77;4.85;;;;;;;;;;5044470;28;20068;-73
2023/08/23 11:40:14;;;;;;;6.55;3.83;;;;;;;;;;5054918;28;20028;-70
2023/08/23 11:43:04;;;;;;;10.88;4.22;;;;;;;;;;5039368;28;20116;-67
2023/08/23 11:45:50;;;;;;;7.60;4.47;;;;;;;;;;5041238;28;20037;-65
2023/08/23 11:48:35;;;;;;;5.03;3.45;;;;;;;;;;5028900;28;20082;-67
2023/08/23 11:51:21;;;;;;;5.22;3.42;;;;;;;;;;5042904;28;20133;-64
2023/08/23 11:54:06;;;;;;;8.00;4.22;;;;;;;;;;5043346;28;20648;-65
2023/08/23 11:56:53;;;;;;;7.13;3.67;;;;;;;;;;5045898;28;20632;-65
2023/08/23 11:59:38;;;;;;;8.07;4.20;;;;;;;;;;5044057;28;20044;-68
2023/08/23 12:02:23;;;;;;;6.40;3.60;;;;;;;;;;5044357;28;20032;-68
2023/08/23 12:05:12;;;;;;;6.97;3.78;;;;;;;;;;5043132;28;20118;-66
2023/08/23 12:07:57;;;;;;;10.90;4.17;;;;;;;;;;5063326;28;20044;-65
2023/08/23 12:10:42;;;;;;;6.95;3.92;;;;;;;;;;5045980;28;20506;-67
2023/08/23 12:13:28;;;;;;;4.60;3.40;;;;;;;;;;5056423;28;20295;-67
2023/08/23 12:16:13;;;;;;;4.45;4.05;;;;;;;;;;5044746;28;20040;-67
2023/08/23 12:18:58;;;;;;;9.07;4.10;;;;;;;;;;5045396;28;20037;-71
2023/08/23 12:21:44;;;;;;;6.07;3.58;;;;;;;;;;5046268;28;20099;-71
2023/08/23 12:24:29;;;;;;;7.03;3.28;;;;;;;;;;5045217;28;20094;-73
2023/08/23 12:27:15;;;;;;;5.88;3.92;;;;;;;;;;5033656;28;20079;-76
2023/08/23 12:30:00;;;;;;;7.32;4.18;;;;;;;;;;5043991;28;20237;-71
2023/08/23 12:32:45;;;;;;;8.15;4.05;;;;;;;;;;5040602;28;20035;-74
2023/08/23 12:35:30;;;;;;;9.32;4.45;;;;;;;;;;5047777;28;20033;-74
2023/08/23 12:38:16;;;;;;;7.65;3.75;;;;;;;;;;5045614;28;20047;-69
2023/08/23 12:41:01;;;;;;;6.82;4.13;;;;;;;;;;5032798;28;20384;-63
2023/08/23 12:43:46;;;;;;;8.35;5.00;;;;;;;;;;5034548;28;20289;-66
2023/08/23 12:46:32;;;;;;;7.53;3.75;;;;;;;;;;5044313;28;20033;-64
2023/08/23 12:49:17;;;;;;;5.90;3.45;;;;;;;;;;5010845;28;20037;-70
2023/08/23 12:52:02;;;;;;;7.35;4.38;;;;;;;;;;5013258;28;20040;-73
2023/08/23 12:54:47;;;;;;;6.43;3.55;;;;;;;;;;5013743;28;20033;-69
2023/08/23 12:57:33;;;;;;;5.88;3.80;;;;;;;;;;5018602;28;20340;-67
2023/08/23 13:00:18;;;;;;;5.82;3.65;;;;;;;;;;5016097;28;20047;-69
2023/08/23 13:03:04;;;;;;;8.43;3.72;;;;;;;;;;5017542;28;20086;-67
2023/08/23 13:05:49;;;;;;;5.15;3.72;;;;;;;;;;5013721;28;21002;-68
2023/08/23 13:08:34;;;;;;;6.13;3.50;;;;;;;;;;5013552;28;20037;-67
2023/08/23 13:11:20;;;;;;;6.07;3.78;;;;;;;;;;5014310;28;20192;-67
2023/08/23 13:14:05;;;;;;;5.13;3.40;;;;;;;;;;5043085;28;20116;-65
2023/08/23 13:16:51;;;;;;;4.10;3.40;;;;;;;;;;5053540;28;20032;-63
2023/08/23 13:19:36;;;;;;;7.10;3.50;;;;;;;;;;5048022;28;20036;-64
2023/08/23 13:22:22;;;;;;;5.90;3.15;;;;;;;;;;5045252;28;20037;-65
2023/08/23 13:25:07;;;;;;;6.72;4.30;;;;;;;;;;5041304;28;20036;-64
2023/08/23 13:27:53;;;;;;;6.63;4.00;;;;;;;;;;5059142;28;20036;-66
2023/08/23 13:30:38;;;;;;;7.70;3.85;;;;;;;;;;5042282;28;20064;-69
2023/08/23 13:33:23;;;;;;;5.80;3.70;;;;;;;;;;5044231;28;20506;-72
2023/08/23 13:36:08;;;;;;;5.32;3.55;;;;;;;;;;5041879;28;20121;-75
2023/08/23 13:38:54;;;;;;;4.60;3.30;;;;;;;;;;5044703;28;20021;-76
2023/08/23 13:41:39;;;;;;;5.40;3.15;;;;;;;;;;5043833;28;20037;-73
2023/08/23 13:44:24;;;;;;;6.43;3.58;;;;;;;;;;5040281;28;20090;-69
2023/08/23 13:47:09;;;;;;;6.47;4.03;;;;;;;;;;5038896;28;20545;-68
2023/08/23 13:49:54;;;;;;;3.63;3.20;;;;;;;;;;5043826;28;20033;-72
2023/08/23 13:52:40;;;;;;;8.15;4.07;;;;;;;;;;5039097;28;20113;-72
2023/08/23 13:55:26;;;;;;;8.43;4.70;;;;;;;;;;5043132;28;20385;-71
2023/08/23 13:58:11;;;;;;;9.10;4.03;;;;;;;;;;5044494;28;20396;-70
2023/08/23 14:00:57;;;;;;;6.32;3.65;;;;;;;;;;5037557;28;20036;-71
2023/08/23 14:03:42;;;;;;;6.20;3.53;;;;;;;;;;5044812;28;20410;-70
2023/08/23 14:06:27;;;;;;;3.92;2.85;;;;;;;;;;5041158;28;20115;-73
2023/08/23 14:09:13;;;;;;;7.07;3.83;;;;;;;;;;5042229;28;20029;-65
2023/08/23 14:11:58;;;;;;;8.30;3.63;;;;;;;;;;5039877;28;20487;-67
2023/08/23 14:14:43;;;;;;;6.85;3.70;;;;;;;;;;5017908;28;20036;-66
2023/08/23 14:17:28;;;;;;;6.70;3.58;;;;;;;;;;5046128;28;20064;-66
2023/08/23 14:20:14;;;;;;;8.43;3.53;;;;;;;;;;5028268;28;20238;-63
2023/08/23 14:22:59;;;;;;;10.07;3.75;;;;;;;;;;5027238;28;20041;-67
2023/08/23 14:25:45;;;;;;;7.57;3.42;;;;;;;;;;5010416;28;20033;-69
2023/08/23 14:28:31;;;;;;;8.50;3.13;;;;;;;;;;5045724;28;20170;-71
2023/08/23 14:31:16;;;;;;;5.47;3.67;;;;;;;;;;5045090;28;20060;-71
2023/08/23 14:34:01;;;;;;;6.85;4.00;;;;;;;;;;5001757;28;20090;-70
2023/08/23 14:36:47;;;;;;;7.22;3.30;;;;;;;;;;5012584;28;20041;-73
2023/08/23 14:39:32;;;;;;;4.70;3.30;;;;;;;;;;5015381;28;20368;-74
2023/08/23 14:42:18;;;;;;;5.72;2.85;;;;;;;;;;5012130;28;20017;-67
2023/08/23 14:45:03;;;;;;;4.78;2.92;;;;;;;;;;5033022;28;20033;-69
2023/08/23 14:47:48;;;;;;;4.95;3.35;;;;;;;;;;5041772;28;20036;-67
2023/08/23 14:50:34;;;;;;;7.13;3.38;;;;;;;;;;5020041;28;20034;-67
2023/08/23 14:53:19;;;;;;;4.85;2.90;;;;;;;;;;5041058;28;20068;-67
2023/08/23 14:56:04;;;;;;;3.97;2.63;;;;;;;;;;5043879;28;20032;-67
2023/08/23 14:58:49;;;;;;;4.60;3.15;;;;;;;;;;5043845;28;20040;-67
2023/08/23 15:01:34;;;;;;;3.58;2.63;;;;;;;;;;5041030;28;20543;-65
2023/08/23 15:04:20;;;;;;;5.25;3.05;;;;;;;;;;5041787;28;20142;-65
2023/08/23 15:07:05;;;;;;;19.23;6.15;;;;;;;;;;5043184;28;20427;-68
2023/08/23 15:09:50;;;;;;;6.40;3.22;;;;;;;;;;5042361;28;20624;-68
2023/08/23 15:12:35;;;;;;;4.97;2.90;;;;;;;;;;5044191;28;20110;-68
2023/08/23 15:15:21;;;;;;;6.13;2.75;;;;;;;;;;5039585;28;20048;-67
2023/08/23 15:18:06;;;;;;;6.38;3.33;;;;;;;;;;5043043;28;20044;-71
2023/08/23 15:20:51;;;;;;;5.18;3.20;;;;;;;;;;5042642;28;20032;-63
2023/08/23 15:23:36;;;;;;;8.68;2.90;;;;;;;;;;5039732;28;20048;-66
2023/08/23 15:26:22;;;;;;;3.58;2.95;;;;;;;;;;5042578;28;20106;-65
2023/08/23 15:29:07;;;;;;;3.40;2.80;;;;;;;;;;5043939;28;20021;-67
2023/08/23 15:31:52;;;;;;;4.55;2.92;;;;;;;;;;5044393;28;20067;-70
2023/08/23 15:34:47;;;;;;;4.50;2.60;;;;;;;;;;5039052;28;20062;-69
2023/08/23 15:37:32;;;;;;;5.85;2.97;;;;;;;;;;5057439;28;20041;-73
2023/08/23 15:40:17;;;;;;;6.85;2.92;;;;;;;;;;5044373;28;20525;-67
2023/08/23 15:43:03;;;;;;;12.20;3.10;;;;;;;;;;5041239;28;20040;-67
2023/08/23 15:45:48;;;;;;;4.43;2.53;;;;;;;;;;5041532;28;20391;-66
2023/08/23 15:48:33;;;;;;;4.47;3.13;;;;;;;;;;5055622;28;20037;-66
2023/08/23 15:51:19;;;;;;;4.43;2.40;;;;;;;;;;5043205;28;20040;-65
2023/08/23 15:54:04;;;;;;;4.28;2.22;;;;;;;;;;5046299;28;20037;-66
2023/08/23 15:56:49;;;;;;;5.25;3.03;;;;;;;;;;5034242;28;20143;-72
2023/08/23 15:59:34;;;;;;;5.47;2.70;;;;;;;;;;5037429;28;20045;-66
2023/08/23 16:02:20;;;;;;;4.03;2.63;;;;;;;;;;5052205;28;20037;-65
2023/08/23 16:05:05;;;;;;;4.97;2.88;;;;;;;;;;5041633;28;20075;-62
2023/08/23 16:07:50;;;;;;;6.25;2.65;;;;;;;;;;5034649;28;20028;-62
2023/08/23 16:10:40;;;;;;;4.72;2.50;;;;;;;;;;5034475;28;20475;-62
2023/08/23 16:13:25;;;;;;;5.88;3.17;;;;;;;;;;5027788;28;20616;-64
2023/08/23 16:16:10;;;;;;;4.47;2.53;;;;;;;;;;5036794;28;20467;-61
2023/08/23 16:18:55;;;;;;;3.17;2.42;;;;;;;;;;5043669;28;20032;-62
2023/08/23 16:21:41;;;;;;;4.72;2.78;;;;;;;;;;5044253;28;20063;-63
2023/08/23 16:24:27;;;;;;;9.32;2.40;;;;;;;;;;5042606;28;20036;-63
2023/08/23 16:27:12;;;;;;;4.03;2.67;;;;;;;;;;5043018;28;20041;-63
2023/08/23 16:29:59;;;;;;;3.67;2.60;;;;;;;;;;5042354;28;20043;-62